Jomi — C6VK4 — position and weather

sailwx.info

Track history (hours):
 
Tides and Currents Weather Stations Pressure Air Temp Water Temp Dewpoint Dewpoint Depression Visibility Wind Speed Wind Dir Waves Ship Positions

Jomi

Last reported at 2014-Nov-08 19:26 UTC. Time now 2014-Nov-24 08:25 UTC.
Position N 45°08' E 036°29'.
Warning: this ship's position is 15 days out of date.

Length 88 m; draft 5.9 m.

Type: Cargo ship. MMSI: 309701000.

Date/timePositionNaut miles runAvg speedWind from/ knotsBaromVisibWave heightAir tempDewpointWater temp
2014-Nov-08 19:26N 45°08' E 036°29'910.1
2014-Nov-08 18:33N 44°59' E 036°30'1010.0
2014-Nov-08 17:33N 44°49' E 036°31'9 9.2
2014-Nov-08 16:33N 44°43' E 036°22'10 9.8
2014-Nov-08 15:33N 44°38' E 036°11'1010.0
2014-Nov-08 14:33N 44°32' E 035°59'1010.2
2014-Nov-08 13:33N 44°27' E 035°47'1010.4
2014-Nov-08 12:33N 44°21' E 035°35'1010.4
2014-Nov-08 11:33N 44°15' E 035°23'1010.3
2014-Nov-08 10:33N 44°10' E 035°10'1010.4
2014-Nov-08 09:33N 44°04' E 034°58'1010.3
2014-Nov-08 08:33N 43°58' E 034°47'1010.2
2014-Nov-08 07:33N 43°53' E 034°35'1010.1
2014-Nov-08 06:33N 43°47' E 034°23'25810.3
2014-Nov-07 05:33N 41°24' E 029°30'1110.7
2014-Nov-07 04:33N 41°19' E 029°18'25 8.4
2014-Nov-07 01:33N 40°58' E 028°60'5 5.3
2014-Nov-07 00:33N 40°53' E 029°00'6 6.0
2014-Nov-06 23:33N 40°47' E 029°02'7 6.9
2014-Nov-06 22:33N 40°48' E 028°53'2 2.1
2014-Nov-06 21:32N 40°49' E 028°51'1 0.8
2014-Nov-06 20:32N 40°48' E 028°51'1 0.8
2014-Nov-06 19:30N 40°47' E 028°51'1 0.6
2014-Nov-06 18:32N 40°47' E 028°51'1 0.5
2014-Nov-06 17:28N 40°46' E 028°51'0 0.5
2014-Nov-06 16:32N 40°46' E 028°51'0 0.2
2014-Nov-06 15:33N 40°46' E 028°51'4 3.9
2014-Nov-06 14:29N 40°50' E 028°51'1 0.7
2014-Nov-06 13:06N 40°49' E 028°51'0 0.7
2014-Nov-06 12:29N 40°48' E 028°51'1 0.7
2014-Nov-06 11:10N 40°48' E 028°50'1 0.8
2014-Nov-06 10:27N 40°47' E 028°50'1 0.7
2014-Nov-06 09:32N 40°47' E 028°49'0 0.3
2014-Nov-06 08:32N 40°47' E 028°49'3 2.7
2014-Nov-06 07:32N 40°49' E 028°51'1 0.9
2014-Nov-06 06:32N 40°48' E 028°50'270 8.1
2014-Nov-04 21:10N 37°46' E 024°33'1010.2
2014-Nov-04 20:12N 37°37' E 024°30'710.2
2014-Nov-04 19:33N 37°32' E 024°24'1010.2
2014-Nov-04 18:33N 37°24' E 024°16'1410.3
2014-Nov-04 17:12N 37°13' E 024°06'  
2014-Oct-30 18:20N 36°32' W 000°34'22510.3
2014-Oct-29 20:30N 36°05' W 005°12'  
Track history (hours):
 
Tides and Currents Weather Stations Pressure Air Temp Water Temp Dewpoint Dewpoint Depression Visibility Wind Speed Wind Dir Waves Ship Positions

Jomi

Last reported at 2014-Nov-08 19:26 UTC. Time now 2014-Nov-24 08:25 UTC.
Position N 45°08' E 036°29'.
Warning: this ship's position is 15 days out of date.

Length 88 m; draft 5.9 m.

Type: Cargo ship. MMSI: 309701000.

Date/timePositionNaut miles runAvg speedWind from/ knotsBaromVisibWave heightAir tempDewpointWater temp
2014-Nov-08 19:26N 45°08' E 036°29'910.1
2014-Nov-08 18:33N 44°59' E 036°30'1010.0
2014-Nov-08 17:33N 44°49' E 036°31'9 9.2
2014-Nov-08 16:33N 44°43' E 036°22'10 9.8
2014-Nov-08 15:33N 44°38' E 036°11'1010.0
2014-Nov-08 14:33N 44°32' E 035°59'1010.2
2014-Nov-08 13:33N 44°27' E 035°47'1010.4
2014-Nov-08 12:33N 44°21' E 035°35'1010.4
2014-Nov-08 11:33N 44°15' E 035°23'1010.3
2014-Nov-08 10:33N 44°10' E 035°10'1010.4
2014-Nov-08 09:33N 44°04' E 034°58'1010.3
2014-Nov-08 08:33N 43°58' E 034°47'1010.2
2014-Nov-08 07:33N 43°53' E 034°35'1010.1
2014-Nov-08 06:33N 43°47' E 034°23'25810.3
2014-Nov-07 05:33N 41°24' E 029°30'1110.7
2014-Nov-07 04:33N 41°19' E 029°18'25 8.4
2014-Nov-07 01:33N 40°58' E 028°60'5 5.3
2014-Nov-07 00:33N 40°53' E 029°00'6 6.0
2014-Nov-06 23:33N 40°47' E 029°02'7 6.9
2014-Nov-06 22:33N 40°48' E 028°53'2 2.1
2014-Nov-06 21:32N 40°49' E 028°51'1 0.8
2014-Nov-06 20:32N 40°48' E 028°51'1 0.8
2014-Nov-06 19:30N 40°47' E 028°51'1 0.6
2014-Nov-06 18:32N 40°47' E 028°51'1 0.5
2014-Nov-06 17:28N 40°46' E 028°51'0 0.5
2014-Nov-06 16:32N 40°46' E 028°51'0 0.2
2014-Nov-06 15:33N 40°46' E 028°51'4 3.9
2014-Nov-06 14:29N 40°50' E 028°51'1 0.7
2014-Nov-06 13:06N 40°49' E 028°51'0 0.7
2014-Nov-06 12:29N 40°48' E 028°51'1 0.7
2014-Nov-06 11:10N 40°48' E 028°50'1 0.8
2014-Nov-06 10:27N 40°47' E 028°50'1 0.7
2014-Nov-06 09:32N 40°47' E 028°49'0 0.3
2014-Nov-06 08:32N 40°47' E 028°49'3 2.7
2014-Nov-06 07:32N 40°49' E 028°51'1 0.9
2014-Nov-06 06:32N 40°48' E 028°50'270 8.1
2014-Nov-04 21:10N 37°46' E 024°33'1010.2
2014-Nov-04 20:12N 37°37' E 024°30'710.2
2014-Nov-04 19:33N 37°32' E 024°24'1010.2
2014-Nov-04 18:33N 37°24' E 024°16'1410.3
2014-Nov-04 17:12N 37°13' E 024°06'  
2014-Oct-30 18:20N 36°32' W 000°34'22510.3
2014-Oct-29 20:30N 36°05' W 005°12'  

Dump ship's entire track history